Terminal Aerodrome Forecast
Issued by NWS

Home | Current Version | Previous Version | Text Only | Print | Product List | Glossary On
Versions: 1 2 3 4 5 6 7 8 9 10 11 12 13 14 15 16 17 18 19
000
FTUS43 KPAH 291700
TAFCGI
TAF
KCGI 291720Z 2918/3018 34016G25KT P6SM OVC028
     FM300000 34008KT P6SM OVC025
     FM301300 01008KT P6SM SCT025=

USA.gov is the U.S. government's official web portal to all federal, state and local government web resources and services.